createdAt,value
2017-10-02T00:01:40.573Z,6.20
2017-10-02T00:04:07.174Z,4.10
2017-10-02T00:06:33.779Z,8.70
2017-10-02T00:09:00.427Z,9.73
2017-10-02T00:11:27.031Z,7.67
2017-10-02T00:13:53.631Z,8.03
2017-10-02T00:16:20.246Z,5.03
2017-10-02T00:18:46.891Z,7.33
2017-10-02T00:21:13.553Z,4.23
2017-10-02T00:23:40.203Z,6.00
2017-10-02T00:26:06.817Z,5.03
2017-10-02T00:28:33.438Z,7.07
2017-10-02T00:31:00.060Z,3.73
2017-10-02T00:33:26.681Z,7.40
2017-10-02T00:35:53.305Z,7.83
2017-10-02T00:38:19.915Z,9.20
2017-10-02T00:40:46.530Z,6.73
2017-10-02T00:43:13.166Z,6.77
2017-10-02T00:45:39.767Z,6.50
2017-10-02T00:48:06.411Z,8.67
2017-10-02T00:50:33.040Z,4.60
2017-10-02T00:52:59.699Z,5.93
2017-10-02T00:55:26.294Z,8.00
2017-10-02T00:57:52.918Z,5.90
2017-10-02T01:00:19.546Z,4.93
2017-10-02T01:02:46.137Z,7.13
2017-10-02T01:05:12.750Z,5.70
2017-10-02T01:07:39.390Z,5.90
2017-10-02T01:10:05.997Z,5.10
2017-10-02T01:12:32.619Z,5.20
2017-10-02T01:14:59.226Z,5.33
2017-10-02T01:17:25.858Z,4.13
2017-10-02T01:19:52.501Z,4.30
2017-10-02T01:22:19.135Z,5.70
2017-10-02T01:24:45.738Z,3.80
2017-10-02T01:27:12.406Z,7.60
2017-10-02T01:29:39.020Z,4.43
2017-10-02T01:32:05.639Z,3.10
2017-10-02T01:34:32.271Z,7.17
2017-10-02T01:36:58.891Z,7.40
2017-10-02T01:39:25.524Z,7.50
2017-10-02T01:41:52.157Z,3.17
2017-10-02T01:44:18.794Z,13.80
2017-10-02T01:46:45.402Z,6.20
2017-10-02T01:49:12.059Z,8.97
2017-10-02T01:51:38.653Z,7.80
2017-10-02T01:54:05.264Z,7.40
2017-10-02T01:56:31.907Z,5.80
2017-10-02T01:58:58.551Z,4.60
2017-10-02T02:01:25.186Z,5.17
2017-10-02T02:03:51.816Z,5.80
2017-10-02T02:06:18.493Z,6.47
2017-10-02T02:08:45.123Z,7.33
2017-10-02T02:11:11.738Z,8.73
2017-10-02T02:13:38.382Z,4.27
2017-10-02T02:16:05.027Z,6.87
2017-10-02T02:18:31.665Z,10.00
2017-10-02T02:20:58.273Z,8.27
2017-10-02T02:23:24.899Z,8.20
2017-10-02T02:25:51.514Z,10.30
2017-10-02T02:28:18.139Z,7.93
2017-10-02T02:30:44.775Z,10.00
2017-10-02T02:33:11.400Z,7.90
2017-10-02T02:35:38.036Z,6.50
2017-10-02T02:38:04.651Z,4.67
2017-10-02T02:40:31.282Z,6.30
2017-10-02T02:42:57.891Z,7.87
2017-10-02T02:45:24.535Z,5.40
2017-10-02T02:47:51.162Z,8.37
2017-10-02T02:50:17.770Z,4.57
2017-10-02T02:52:44.398Z,4.13
2017-10-02T02:55:11.027Z,4.97
2017-10-02T02:57:37.635Z,6.67
2017-10-02T03:00:04.250Z,6.00
2017-10-02T03:02:31.847Z,7.73
2017-10-02T03:04:58.475Z,5.67
2017-10-02T03:07:25.114Z,5.80
2017-10-02T03:09:51.770Z,8.37
2017-10-02T03:12:18.392Z,9.23
2017-10-02T03:14:44.994Z,7.30
2017-10-02T03:17:11.635Z,8.00
2017-10-02T03:19:38.275Z,13.30
2017-10-02T03:22:04.920Z,7.37
2017-10-02T03:24:31.547Z,9.10
2017-10-02T03:26:58.178Z,7.17
2017-10-02T03:29:24.843Z,7.03
2017-10-02T03:31:51.478Z,7.57
2017-10-02T03:34:18.123Z,7.13
2017-10-02T03:36:44.735Z,8.40
2017-10-02T03:39:11.345Z,7.17
2017-10-02T03:41:37.964Z,13.20
2017-10-02T03:44:04.610Z,8.43
2017-10-02T03:46:31.233Z,16.47
2017-10-02T03:48:58.023Z,8.77
2017-10-02T03:51:24.649Z,6.43
2017-10-02T03:53:51.293Z,5.30
2017-10-02T03:56:17.972Z,6.90
2017-10-02T03:58:44.583Z,9.03
2017-10-02T04:01:11.246Z,6.37
2017-10-02T04:03:37.891Z,9.43
2017-10-02T04:06:04.521Z,7.53
2017-10-02T04:08:31.135Z,8.13
2017-10-02T04:10:57.775Z,6.60
2017-10-02T04:13:24.398Z,10.73
2017-10-02T04:15:51.046Z,8.13
2017-10-02T04:18:17.651Z,13.80
2017-10-02T04:20:44.276Z,8.50
2017-10-02T04:23:10.884Z,8.57
2017-10-02T04:25:37.528Z,5.60
2017-10-02T04:28:04.235Z,5.10
2017-10-02T04:30:30.866Z,9.40
2017-10-02T04:32:57.525Z,7.83
2017-10-02T04:42:08.973Z,11.20
2017-10-02T04:44:35.587Z,6.40
2017-10-02T04:47:02.195Z,9.70
2017-10-02T04:49:28.840Z,5.60
2017-10-02T04:51:55.451Z,4.53
2017-10-02T04:54:22.098Z,7.33
2017-10-02T04:56:48.726Z,5.63
2017-10-02T04:59:15.360Z,31.20
2017-10-02T05:01:42.004Z,8.37
2017-10-02T05:04:08.611Z,9.37
2017-10-02T05:06:35.249Z,12.27
2017-10-02T05:09:01.852Z,6.50
2017-10-02T05:11:28.475Z,9.33
2017-10-02T05:13:55.107Z,10.97
2017-10-02T05:16:21.705Z,9.50
2017-10-02T05:18:48.473Z,10.03
2017-10-02T05:21:15.091Z,4.30
2017-10-02T05:23:41.740Z,3.87
2017-10-02T05:26:08.379Z,5.17
2017-10-02T05:28:34.981Z,4.33
2017-10-02T05:31:01.617Z,4.23
2017-10-02T05:33:28.226Z,5.50
2017-10-02T05:35:54.872Z,3.70
2017-10-02T05:38:21.474Z,9.40
2017-10-02T05:40:48.086Z,5.13
2017-10-02T05:43:14.746Z,6.03
2017-10-02T05:45:41.366Z,5.10
2017-10-02T05:48:08.003Z,7.80
2017-10-02T05:50:34.657Z,5.60
2017-10-02T05:53:01.284Z,8.93
2017-10-02T05:55:27.900Z,4.27
2017-10-02T05:57:54.538Z,5.27
2017-10-02T06:00:21.187Z,3.77
2017-10-02T06:02:47.834Z,3.70
2017-10-02T06:05:14.442Z,4.00
2017-10-02T06:07:41.088Z,3.23
2017-10-02T06:10:07.739Z,5.00
2017-10-02T06:12:34.379Z,3.43
2017-10-02T06:15:01.006Z,2.67
2017-10-02T06:17:27.630Z,5.00
2017-10-02T06:19:54.250Z,3.07
2017-10-02T06:22:20.869Z,6.40
2017-10-02T06:24:47.509Z,8.13
2017-10-02T06:27:14.121Z,5.00
2017-10-02T06:29:40.755Z,3.97
2017-10-02T06:32:07.368Z,4.00
2017-10-02T06:34:33.970Z,3.43
2017-10-02T06:37:00.642Z,3.47
2017-10-02T06:39:27.247Z,3.27
2017-10-02T06:41:53.882Z,3.50
2017-10-02T06:44:20.510Z,5.77
2017-10-02T06:46:47.128Z,2.70
2017-10-02T06:49:13.778Z,1.70
2017-10-02T06:51:40.375Z,2.50
2017-10-02T06:54:07.021Z,3.57
2017-10-02T06:56:33.664Z,1.70
2017-10-02T06:59:00.269Z,4.17
2017-10-02T07:01:26.897Z,1.90
2017-10-02T07:03:53.521Z,3.20
2017-10-02T07:06:20.148Z,2.67
2017-10-02T07:08:46.750Z,2.33
2017-10-02T07:11:13.379Z,6.03
2017-10-02T07:13:40.026Z,1.80
2017-10-02T07:16:06.651Z,3.00
2017-10-02T07:18:33.388Z,2.63
2017-10-02T07:21:00.028Z,1.80
2017-10-02T07:23:26.681Z,1.87
2017-10-02T07:25:53.319Z,3.87
2017-10-02T07:28:19.968Z,1.77
2017-10-02T07:30:46.604Z,2.60
2017-10-02T07:33:13.218Z,2.17
2017-10-02T07:35:39.846Z,4.30
2017-10-02T07:38:06.483Z,3.37
2017-10-02T07:40:33.110Z,4.30
2017-10-02T07:42:59.768Z,2.60
2017-10-02T07:45:26.387Z,2.90
2017-10-02T07:47:53.005Z,5.20
2017-10-02T07:50:19.640Z,3.97
2017-10-02T07:52:46.276Z,12.03
2017-10-02T07:55:12.916Z,4.13
2017-10-02T07:57:39.556Z,3.83
2017-10-02T08:00:06.187Z,4.53
2017-10-02T08:02:32.811Z,4.50
2017-10-02T08:04:59.429Z,4.13
2017-10-02T08:07:26.060Z,5.57
2017-10-02T08:09:53.449Z,5.17
2017-10-02T08:12:21.337Z,6.37
2017-10-02T08:14:47.963Z,6.10
2017-10-02T08:17:14.586Z,10.60
2017-10-02T08:19:41.224Z,6.30
2017-10-02T08:22:07.846Z,5.53
2017-10-02T08:24:34.480Z,7.93
2017-10-02T08:27:01.114Z,8.03
2017-10-02T08:29:27.739Z,6.77
2017-10-02T08:31:54.375Z,8.00
2017-10-02T08:34:20.995Z,6.10
2017-10-02T08:36:47.611Z,8.43
2017-10-02T08:39:14.254Z,6.67
2017-10-02T08:41:40.896Z,6.23
2017-10-02T08:44:07.548Z,8.50
2017-10-02T08:46:34.158Z,6.80
2017-10-02T08:49:00.783Z,6.00
2017-10-02T08:51:27.389Z,8.20
2017-10-02T08:53:54.015Z,6.53
2017-10-02T08:56:20.644Z,8.57
2017-10-02T08:58:47.242Z,6.10
2017-10-02T09:01:13.877Z,7.33
2017-10-02T09:03:40.495Z,7.83
2017-10-02T09:06:07.147Z,6.13
2017-10-02T09:08:33.745Z,5.70
2017-10-02T09:11:00.420Z,8.20
2017-10-02T09:13:27.082Z,6.97
2017-10-02T09:15:53.697Z,6.20
2017-10-02T09:18:20.326Z,7.10
2017-10-02T09:20:46.960Z,5.63
2017-10-02T09:23:13.608Z,7.43
2017-10-02T09:25:40.227Z,5.23
2017-10-02T09:28:06.860Z,5.30
2017-10-02T09:30:33.475Z,6.53
2017-10-02T09:33:00.085Z,9.03
2017-10-02T09:35:26.731Z,9.93
2017-10-02T09:37:53.351Z,6.53
2017-10-02T09:40:20.301Z,12.63
2017-10-02T09:42:46.918Z,7.57
2017-10-02T09:45:13.554Z,5.60
2017-10-02T09:47:40.182Z,8.03
2017-10-02T09:50:06.905Z,8.67
2017-10-02T09:52:33.525Z,5.60
2017-10-02T09:55:00.164Z,6.30
2017-10-02T09:57:26.805Z,7.97
2017-10-02T09:59:53.439Z,4.53
2017-10-02T10:02:20.075Z,14.33
2017-10-02T10:04:46.730Z,8.60
2017-10-02T10:07:13.360Z,9.93
2017-10-02T10:09:39.990Z,10.43
2017-10-02T10:12:06.644Z,11.37
2017-10-02T10:14:33.266Z,19.43
2017-10-02T10:16:59.903Z,16.23
2017-10-02T10:19:26.521Z,12.00
2017-10-02T10:21:53.144Z,12.27
2017-10-02T10:24:19.795Z,14.93
2017-10-02T10:26:46.420Z,7.93
2017-10-02T10:29:13.082Z,10.50
2017-10-02T10:31:39.751Z,12.10
2017-10-02T10:34:06.383Z,13.20
2017-10-02T10:36:32.999Z,17.43
2017-10-02T10:38:59.658Z,15.87
2017-10-02T10:41:26.303Z,22.00
2017-10-02T10:43:52.930Z,19.30
2017-10-02T10:46:19.560Z,22.30
2017-10-02T10:48:46.250Z,18.33
2017-10-02T10:51:12.879Z,20.43
2017-10-02T10:53:39.498Z,21.20
2017-10-02T10:56:06.141Z,21.20
2017-10-02T10:58:32.775Z,20.80
2017-10-02T11:00:59.439Z,15.37
2017-10-02T11:03:26.069Z,19.40
2017-10-02T11:05:52.715Z,20.80
2017-10-02T11:08:19.389Z,24.33
2017-10-02T11:10:46.003Z,20.70
2017-10-02T11:13:12.637Z,31.33
2017-10-02T11:15:39.251Z,26.43
2017-10-02T11:18:05.883Z,22.00
2017-10-02T11:20:32.511Z,16.43
2017-10-02T11:22:59.191Z,15.10
2017-10-02T11:25:25.814Z,21.80
2017-10-02T11:27:52.461Z,33.27
2017-10-02T11:30:19.073Z,23.27
2017-10-02T11:32:45.704Z,22.27
2017-10-02T11:35:12.359Z,27.80
2017-10-02T11:37:38.973Z,18.10
2017-10-02T11:40:05.600Z,27.43
2017-10-02T11:42:32.237Z,18.00
2017-10-02T11:44:58.861Z,20.20
2017-10-02T11:47:25.554Z,20.80
2017-10-02T11:49:52.191Z,30.10
2017-10-02T11:52:18.815Z,26.30
2017-10-02T11:54:45.459Z,20.47
2017-10-02T11:57:12.080Z,24.23
2017-10-02T11:59:38.708Z,27.33
2017-10-02T12:02:05.371Z,19.20
2017-10-02T12:04:31.994Z,28.10
2017-10-02T12:06:58.637Z,24.57
2017-10-02T12:09:25.278Z,40.93
2017-10-02T12:11:51.928Z,27.17
2017-10-02T12:14:18.567Z,38.80
2017-10-02T12:16:45.167Z,23.17
2017-10-02T12:19:11.798Z,24.20
2017-10-02T12:21:38.425Z,29.57
2017-10-02T12:24:05.031Z,17.93
2017-10-02T12:26:31.688Z,27.33
2017-10-02T12:28:58.310Z,23.90
2017-10-02T12:31:24.980Z,24.93
2017-10-02T12:33:51.602Z,27.90
2017-10-02T12:36:18.238Z,22.87
2017-10-02T12:38:44.918Z,23.70
2017-10-02T12:41:11.557Z,25.50
2017-10-02T12:43:38.203Z,27.93
2017-10-02T12:46:04.845Z,33.70
2017-10-02T12:48:31.480Z,26.50
2017-10-02T12:50:58.124Z,22.83
2017-10-02T12:53:24.786Z,24.47
2017-10-02T12:55:51.421Z,28.07
2017-10-02T12:58:18.044Z,22.47
2017-10-02T13:00:44.675Z,20.93
2017-10-02T13:03:11.295Z,26.00
2017-10-02T13:05:37.937Z,18.07
2017-10-02T13:08:04.568Z,27.33
2017-10-02T13:10:31.208Z,18.40
2017-10-02T13:12:57.855Z,22.73
2017-10-02T13:15:24.507Z,20.87
2017-10-02T13:17:51.144Z,23.87
2017-10-02T13:20:17.778Z,24.63
2017-10-02T13:22:44.460Z,24.23
2017-10-02T13:25:11.108Z,13.90
2017-10-02T13:27:37.805Z,17.70
2017-10-02T13:30:04.438Z,25.37
2017-10-02T13:32:31.042Z,21.87
2017-10-02T13:34:57.709Z,33.23
2017-10-02T13:37:24.336Z,23.90
2017-10-02T13:39:50.958Z,21.50
2017-10-02T13:42:17.636Z,27.93
2017-10-02T13:44:44.274Z,20.63
2017-10-02T13:47:10.920Z,22.37
2017-10-02T13:49:37.551Z,25.30
2017-10-02T13:52:04.165Z,26.20
2017-10-02T13:54:30.832Z,43.10
2017-10-02T13:56:57.463Z,26.60
2017-10-02T13:59:24.118Z,20.77
2017-10-02T14:01:50.757Z,22.50
2017-10-02T14:04:17.390Z,25.90
2017-10-02T14:06:44.034Z,27.53
2017-10-02T14:09:10.659Z,20.13
2017-10-02T14:11:37.323Z,14.70
2017-10-02T14:14:03.957Z,18.90
2017-10-02T14:16:30.566Z,20.90
2017-10-02T14:18:57.206Z,20.70
2017-10-02T14:21:23.814Z,20.57
2017-10-02T14:23:50.465Z,18.30
2017-10-02T14:26:17.083Z,23.03
2017-10-02T14:28:43.739Z,21.90
2017-10-02T14:31:10.374Z,28.23
2017-10-02T14:33:36.998Z,17.30
2017-10-02T14:36:03.631Z,20.30
2017-10-02T14:38:30.260Z,23.10
2017-10-02T14:40:56.896Z,18.20
2017-10-02T14:43:23.510Z,18.33
2017-10-02T14:45:50.160Z,19.20
2017-10-02T14:48:16.817Z,18.13
2017-10-02T14:50:43.442Z,22.07
2017-10-02T14:53:10.074Z,20.50
2017-10-02T14:55:36.691Z,30.20
2017-10-02T14:58:03.349Z,26.17
2017-10-02T15:00:29.969Z,22.17
2017-10-02T15:02:56.609Z,23.33
2017-10-02T15:05:23.252Z,23.50
2017-10-02T15:07:49.874Z,20.63
2017-10-02T15:10:16.525Z,28.33
2017-10-02T15:12:43.161Z,15.77
2017-10-02T15:15:09.801Z,30.87
2017-10-02T15:17:36.418Z,15.80
2017-10-02T15:20:03.070Z,22.87
2017-10-02T15:22:29.705Z,21.63
2017-10-02T15:24:56.344Z,27.57
2017-10-02T15:27:22.976Z,16.30
2017-10-02T15:29:50.614Z,20.93
2017-10-02T15:32:17.238Z,22.40
2017-10-02T15:34:43.881Z,26.00
2017-10-02T15:37:10.508Z,18.27
2017-10-02T15:39:37.161Z,21.67
2017-10-02T15:42:03.809Z,19.20
2017-10-02T15:44:30.439Z,27.07
2017-10-02T15:46:57.082Z,19.33
2017-10-02T15:49:23.699Z,26.63
2017-10-02T15:51:50.326Z,18.30
2017-10-02T15:54:16.942Z,18.47
2017-10-02T15:56:43.615Z,25.70
2017-10-02T15:59:10.258Z,22.03
2017-10-02T16:01:36.879Z,27.77
2017-10-02T16:04:03.503Z,19.47
2017-10-02T16:06:30.124Z,25.43
2017-10-02T16:08:56.766Z,26.93
2017-10-02T16:11:23.398Z,23.53
2017-10-02T16:13:50.035Z,19.40
2017-10-02T16:16:16.690Z,25.73
2017-10-02T16:18:43.347Z,27.57
2017-10-02T16:21:09.976Z,31.13
2017-10-02T16:23:36.607Z,19.97
2017-10-02T16:26:03.219Z,23.83
2017-10-02T16:28:29.860Z,24.90
2017-10-02T16:30:56.506Z,24.27
2017-10-02T16:33:23.168Z,26.17
2017-10-02T16:35:49.821Z,30.43
2017-10-02T16:38:16.449Z,21.90
2017-10-02T16:40:43.071Z,20.07
2017-10-02T16:43:09.708Z,26.27
2017-10-02T16:45:36.388Z,32.40
2017-10-02T16:48:03.054Z,23.23
2017-10-02T16:50:29.679Z,29.70
2017-10-02T16:52:56.306Z,19.73
2017-10-02T16:55:22.963Z,23.03
2017-10-02T16:57:49.575Z,20.80
2017-10-02T17:00:16.234Z,18.93
2017-10-02T17:02:42.880Z,18.73
2017-10-02T17:05:09.515Z,24.23
2017-10-02T17:07:36.128Z,25.10
2017-10-02T17:10:02.779Z,23.47
2017-10-02T17:12:29.406Z,18.83
2017-10-02T17:14:56.041Z,17.10
2017-10-02T17:17:22.654Z,18.77
2017-10-02T17:19:49.312Z,32.70
2017-10-02T17:22:15.930Z,34.43
2017-10-02T17:24:42.569Z,23.80
2017-10-02T17:27:09.240Z,16.83
2017-10-02T17:29:35.846Z,21.57
2017-10-02T17:32:02.528Z,28.07
2017-10-02T17:34:29.194Z,25.90
2017-10-02T17:36:55.837Z,32.20
2017-10-02T17:39:22.508Z,20.50
2017-10-02T17:41:49.135Z,21.90
2017-10-02T17:44:15.761Z,17.00
2017-10-02T17:46:42.427Z,21.80
2017-10-02T17:49:09.060Z,30.27
2017-10-02T17:51:35.687Z,19.43
2017-10-02T17:54:02.356Z,35.10
2017-10-02T17:56:28.983Z,39.73
2017-10-02T17:58:55.628Z,28.07
2017-10-02T18:01:22.244Z,21.83
2017-10-02T18:03:48.871Z,26.60
2017-10-02T18:06:15.511Z,38.83
2017-10-02T18:08:42.152Z,27.87
2017-10-02T18:11:08.759Z,31.60
2017-10-02T18:13:35.406Z,31.60
2017-10-02T18:16:02.090Z,28.30
2017-10-02T18:18:28.712Z,30.70
2017-10-02T18:20:55.335Z,33.90
2017-10-02T18:23:21.976Z,39.03
2017-10-02T18:25:48.606Z,42.83
2017-10-02T18:28:15.225Z,30.67
2017-10-02T18:30:41.831Z,30.40
2017-10-02T18:33:08.472Z,44.87
2017-10-02T18:35:35.125Z,25.10
2017-10-02T18:38:01.791Z,38.93
2017-10-02T18:40:28.463Z,29.63
2017-10-02T18:42:55.072Z,24.90
2017-10-02T18:45:21.704Z,34.93
2017-10-02T18:47:48.353Z,32.53
2017-10-02T18:50:14.966Z,25.57
2017-10-02T18:52:41.636Z,31.63
2017-10-02T18:55:08.247Z,18.47
2017-10-02T18:57:34.884Z,36.67
2017-10-02T19:00:01.537Z,33.77
2017-10-02T19:02:28.180Z,36.67
2017-10-02T19:04:54.828Z,23.67
2017-10-02T19:07:21.485Z,33.27
2017-10-02T19:09:48.137Z,27.00
2017-10-02T19:12:14.790Z,24.63
2017-10-02T19:14:41.413Z,24.17
2017-10-02T19:17:08.074Z,29.33
2017-10-02T19:19:34.706Z,30.07
2017-10-02T19:22:01.359Z,30.53
2017-10-02T19:24:27.989Z,27.90
2017-10-02T19:26:54.635Z,25.10
2017-10-02T19:29:21.260Z,28.63
2017-10-02T19:31:47.946Z,32.30
2017-10-02T19:34:14.596Z,26.13
2017-10-02T19:36:41.219Z,31.70
2017-10-02T19:39:07.865Z,22.50
2017-10-02T19:41:34.545Z,20.53
2017-10-02T19:44:01.195Z,36.70
2017-10-02T19:46:27.902Z,26.73
2017-10-02T19:48:54.550Z,27.77
2017-10-02T19:51:21.527Z,34.63
2017-10-02T19:53:48.204Z,23.70
2017-10-02T19:56:14.875Z,26.07
2017-10-02T19:58:41.504Z,30.50
2017-10-02T20:01:08.142Z,21.80
2017-10-02T20:03:34.768Z,22.00
2017-10-02T20:06:01.408Z,28.53
2017-10-02T20:08:28.070Z,19.80
2017-10-02T20:10:54.716Z,28.27
2017-10-02T20:13:21.363Z,27.40
2017-10-02T20:15:48.023Z,33.50
2017-10-02T20:18:14.661Z,25.30
2017-10-02T20:20:41.279Z,20.60
2017-10-02T20:23:07.939Z,28.23
2017-10-02T20:25:34.582Z,26.60
2017-10-02T20:28:01.215Z,33.17
2017-10-02T20:30:27.838Z,26.10
2017-10-02T20:32:54.478Z,31.87
2017-10-02T20:35:21.114Z,28.40
2017-10-02T20:37:47.748Z,23.87
2017-10-02T20:40:14.384Z,23.37
2017-10-02T20:42:41.032Z,26.13
2017-10-02T20:45:07.686Z,21.30
2017-10-02T20:47:34.316Z,35.57
2017-10-02T20:50:00.935Z,28.27
2017-10-02T20:52:27.572Z,29.10
2017-10-02T20:54:54.187Z,26.13
2017-10-02T20:57:20.855Z,32.77
2017-10-02T20:59:47.475Z,32.17
2017-10-02T21:02:14.148Z,41.27
2017-10-02T21:04:40.784Z,29.10
2017-10-02T21:07:07.442Z,44.07
2017-10-02T21:09:34.063Z,22.83
2017-10-02T21:12:00.690Z,33.20
2017-10-02T21:14:27.406Z,36.93
2017-10-02T21:16:54.022Z,33.20
2017-10-02T21:19:20.657Z,39.10
2017-10-02T21:21:47.334Z,35.63
2017-10-02T21:24:14.016Z,30.97
2017-10-02T21:26:41.706Z,36.83
2017-10-02T21:29:08.396Z,33.60
2017-10-02T21:31:35.063Z,46.43
2017-10-02T21:34:01.696Z,31.77
2017-10-02T21:36:28.361Z,35.67
2017-10-02T21:38:54.980Z,28.00
2017-10-02T21:41:21.628Z,35.93
2017-10-02T21:43:48.316Z,27.93
2017-10-02T21:46:14.932Z,36.50
2017-10-02T21:48:41.573Z,21.40
2017-10-02T21:51:08.239Z,38.60
2017-10-02T21:53:34.871Z,39.53
2017-10-02T21:56:01.490Z,51.73
2017-10-02T21:58:28.160Z,38.67
2017-10-02T22:00:54.812Z,31.63
2017-10-02T22:03:21.487Z,29.47
2017-10-02T22:05:48.095Z,33.20
2017-10-02T22:08:14.715Z,44.97
2017-10-02T22:10:41.385Z,40.70
2017-10-02T22:13:08.023Z,36.70
2017-10-02T22:15:34.671Z,30.23
2017-10-02T22:18:01.296Z,43.30
2017-10-02T22:20:27.948Z,28.33
2017-10-02T22:22:54.556Z,39.17
2017-10-02T22:25:21.178Z,46.20
2017-10-02T22:27:47.837Z,35.23
2017-10-02T22:30:14.475Z,46.50
2017-10-02T22:32:41.113Z,33.50
2017-10-02T22:35:07.759Z,47.30
2017-10-02T22:37:34.404Z,26.93
2017-10-02T22:40:01.038Z,34.27
2017-10-02T22:42:27.641Z,32.50
2017-10-02T22:44:54.271Z,40.03
2017-10-02T22:47:20.889Z,33.63
2017-10-02T22:49:47.539Z,27.67
2017-10-02T22:52:14.190Z,61.87
2017-10-02T22:54:40.859Z,41.57
2017-10-02T22:57:07.510Z,46.07
2017-10-02T22:59:34.152Z,47.23
2017-10-02T23:02:00.774Z,28.17
2017-10-02T23:04:27.426Z,31.67
2017-10-02T23:06:54.054Z,36.37
2017-10-02T23:09:20.767Z,44.80
2017-10-02T23:11:47.387Z,31.63
2017-10-02T23:14:14.033Z,33.17
2017-10-02T23:16:40.668Z,56.40
2017-10-02T23:19:07.286Z,38.10
2017-10-02T23:21:33.941Z,40.10
2017-10-02T23:24:00.559Z,37.93
2017-10-02T23:26:27.181Z,55.70
2017-10-02T23:28:53.813Z,40.63
2017-10-02T23:31:20.442Z,44.60
2017-10-02T23:33:47.103Z,49.60
2017-10-02T23:36:13.746Z,43.43
2017-10-02T23:38:40.387Z,36.37
2017-10-02T23:41:07.005Z,36.53
2017-10-02T23:43:33.657Z,33.97
2017-10-02T23:46:00.283Z,36.93
2017-10-02T23:48:26.910Z,31.37
2017-10-02T23:50:53.549Z,21.30
2017-10-02T23:53:20.174Z,19.27
2017-10-02T23:55:46.810Z,26.80
2017-10-02T23:58:13.443Z,22.30
